Flight Track Log - Related Links

Times and Time Zones

All times are in EST time to prevent confusion due to time zone crossing. See the UAL4236 flight status page for this flight to view local times or setup timezone preferences in your user account.

Time Position Orientation Groundspeed Altitude Reporting Facility
EST Latitude Longitude Course Direction KTS MPH feet Rate Location/Type
Fri 09:43:24 AM 29.9661 -95.3456 276° West 152 175 700  Level Houston Center
Fri 09:44:01 AM 29.9436 -95.3531 196° South 170 196 2,000 1,979 Climbing Houston Center
Fri 09:45:01 AM 29.9419 -95.4256 268° West 246 283 3,900 1,810 Climbing Houston Center
Fri 09:45:04 AM 29.9422 -95.4222 85° East 236 272 3,900 2,400 Level Houston Center
Fri 09:46:06 AM 29.9542 -95.5011 280° West 248 285 6,500 2,419 Climbing Houston Center
Fri 09:47:08 AM 29.9714 -95.5825 284° West 260 299 8,900 2,195 Climbing Houston Center
Fri 09:48:00 AM 30.0458 -95.9491 276° West  Level FlightAware Approximate
Fri 09:48:09 AM 29.9906 -95.6636 285° West 264 304 11,000  Level Houston Center
Fri 09:49:11 AM 30.0083 -95.7544 283° West 287 330 12,100 919 Climbing Houston Center
Fri 09:50:13 AM 30.0342 -95.8806 283° West 336 387 12,900 919 Climbing Houston Center
Fri 09:51:15 AM 30.0575 -95.9928 284° West 358 412 14,000 976 Climbing Houston Center
Fri 09:52:16 AM 30.0775 -96.1003 282° West 367 422 14,900 927 Climbing Houston Center
Fri 09:53:18 AM 30.0950 -96.2181 280° West 373 429 15,900 1,065 Climbing Houston Center
Fri 09:54:20 AM 30.1172 -96.3608 280° West 378 435 17,100 1,024 Climbing Houston Center
Fri 09:55:21 AM 30.1339 -96.4694 280° West 378 435 18,000 976 Climbing Houston Center
Fri 09:56:23 AM 30.1533 -96.5892 281° West 374 430 19,100 1,113 Climbing Houston Center
Fri 09:57:25 AM 30.1747 -96.7333 280° West 383 441 20,300 1,122 Climbing Houston Center
Fri 09:58:26 AM 30.1922 -96.8558 279° West 383 441 21,400 1,024 Climbing Houston Center
Fri 09:59:28 AM 30.2114 -96.9814 280° West 390 449 22,400 1,210 Climbing Houston Center
Fri 10:00:30 AM 30.2289 -97.1050 279° West 387 445 23,900 1,452 Climbing Houston Center
Fri 10:01:32 AM 30.2475 -97.2242 280° West 376 433 25,400 1,306 Climbing Houston Center
Fri 10:02:34 AM 30.2661 -97.3431 280° West 371 427 26,600 1,065 Climbing Houston Center
Fri 10:03:36 AM 30.2892 -97.4625 283° West 376 433 27,600 1,024 Climbing Houston Center
Fri 10:04:37 AM 30.3131 -97.5814 283° West 375 432 28,700 1,024 Climbing Houston Center
Fri 10:05:39 AM 30.3364 -97.7014 283° West 377 434 29,700 968 Climbing Houston Center
Fri 10:06:41 AM 30.3594 -97.8217 283° West 377 434 30,700 1,056 Climbing Houston Center
Fri 10:07:44 AM 30.3858 -97.9628 282° West 380 437 31,900 1,104 Climbing Houston Center
Fri 10:08:46 AM 30.4094 -98.0836 283° West 380 437 33,000 1,016 Climbing Houston Center
Fri 10:09:48 AM 30.4322 -98.2044 282° West 381 438 34,000 1,016 Climbing Houston Center
Fri 10:10:50 AM 30.4547 -98.3264 282° West 382 440 35,100 968 Climbing Houston Center
Fri 10:11:52 AM 30.4778 -98.4467 283° West 379 436 36,000 435 Climbing Houston Center
Fri 10:12:54 AM 30.5006 -98.5683 282° West 383 441 36,000  Level Houston Center
Fri 10:13:56 AM 30.5244 -98.6975 282° West 400 460 36,000  Level Houston Center
Fri 10:14:58 AM 30.5472 -98.8244 282° West 400 460 36,000  Level Houston Center
Fri 10:16:01 AM 30.5750 -98.9700 283° West 394 453 36,000  Level Houston Center
Fri 10:17:03 AM 30.5975 -99.0950 282° West 391 450 36,000  Level Houston Center
Fri 10:18:05 AM 30.6208 -99.2214 282° West 386 444 36,000  Level Houston Center
Fri 10:19:07 AM 30.6417 -99.3425 281° West 385 443 36,000  Level Houston Center
Fri 10:20:09 AM 30.6636 -99.4606 282° West 379 436 36,000  Level Houston Center
Fri 10:21:11 AM 30.6847 -99.5803 282° West 380 437 36,000  Level Houston Center
Fri 10:22:13 AM 30.7067 -99.7006 282° West 382 440 36,000  Level Houston Center
Fri 10:23:16 AM 30.7325 -99.8425 282° West 378 435 36,000  Level Houston Center
Fri 10:24:18 AM 30.7522 -99.9619 281° West 378 435 36,000  Level Houston Center
Fri 10:25:20 AM 30.7739 -100.0811 282° West 380 437 36,000  Level Houston Center
Fri 10:26:22 AM 30.7939 -100.2031 281° West 383 441 36,000  Level Houston Center
Fri 10:27:24 AM 30.8158 -100.3239 282° West 385 443 36,000  Level Houston Center
Fri 10:28:26 AM 30.8397 -100.4694 281° West 384 442 36,000  Level Houston Center
Fri 10:29:28 AM 30.8611 -100.5894 282° West 381 438 36,000  Level Houston Center
Fri 10:30:30 AM 30.8811 -100.7103 281° West 382 440 36,000  Level Houston Center
Fri 10:31:33 AM 30.9019 -100.8300 281° West 380 437 36,000  Level Houston Center
Fri 10:32:35 AM 30.9222 -100.9494 281° West 378 435 36,000  Level Houston Center
Fri 10:33:37 AM 30.9456 -101.0914 281° West 374 430 36,000  Level Houston Center
Fri 10:34:39 AM 30.9647 -101.2122 281° West 378 435 36,000  Level Houston Center
Fri 10:35:41 AM 30.9839 -101.3353 280° West 377 434 36,000  Level Houston Center
Fri 10:36:43 AM 31.0036 -101.4547 281° West 376 433 36,000  Level Houston Center
Fri 10:37:45 AM 31.0236 -101.5747 281° West 377 434 36,000  Level Houston Center
Fri 10:38:47 AM 31.0428 -101.6964 280° West 380 437 36,000  Level Houston Center
Fri 10:39:50 AM 31.0625 -101.8172 281° West 380 437 36,000  Level Houston Center
Fri 10:40:52 AM 31.0858 -101.9622 281° West 379 436 36,000  Level Houston Center
Fri 10:41:54 AM 31.1044 -102.0836 280° West 379 436 36,000  Level Houston Center
Fri 10:42:56 AM 31.1236 -102.2064 280° West 380 437 36,000 -48 Level Houston Center
Fri 10:43:58 AM 31.1414 -102.3303 280° West 380 437 35,900  Descending Houston Center
Fri 10:45:00 AM 31.1611 -102.4539 281° West 381 438 36,000 49 Climbing Houston Center
Fri 10:46:00 AM 31.1792 -102.5778 280° West 384 442 36,000  Level Albuquerque Center
Fri 10:47:02 AM 31.1975 -102.6981 280° West 380 437 36,000  Level Albuquerque Center
Fri 10:48:04 AM 31.2164 -102.8181 280° West 377 434 36,000  Level Albuquerque Center
Fri 10:49:05 AM 31.2342 -102.9364 280° West 374 430 36,000  Level Albuquerque Center
Fri 10:50:07 AM 31.2542 -103.0767 280° West 369 425 36,000 -48 Level Albuquerque Center
Fri 10:51:09 AM 31.2725 -103.1925 281° West 365 420 35,900 -532 Descending Albuquerque Center
Fri 10:52:11 AM 31.2892 -103.3086 280° West 364 419 34,900 -968 Descending Albuquerque Center
Fri 10:53:13 AM 31.3053 -103.4233 279° West 361 415 33,900 -968 Descending Albuquerque Center
Fri 10:54:15 AM 31.3225 -103.5389 280° West 360 414 32,900 -927 Descending Albuquerque Center
Fri 10:55:16 AM 31.3400 -103.6639 279° West 376 433 32,000 -488 Descending Albuquerque Center
Fri 10:56:18 AM 31.3583 -103.7881 280° West 386 444 31,900 -581 Descending Albuquerque Center
Fri 10:57:20 AM 31.3786 -103.9325 279° West 381 438 30,800 -1,065 Descending Albuquerque Center
Fri 10:58:22 AM 31.3958 -104.0581 279° West 385 443 29,700 -1,065 Descending Albuquerque Center
Fri 10:59:24 AM 31.4142 -104.1867 280° West 394 453 28,600 -1,016 Descending Albuquerque Center
Fri 11:00:26 AM 31.4342 -104.3164 280° West 400 460 27,600 -1,016 Descending Albuquerque Center
Fri 11:01:28 AM 31.4500 -104.4447 278° West 401 461 26,500 -823 Descending Albuquerque Center
Fri 11:02:30 AM 31.4644 -104.5733 278° West 400 460 25,900 -435 Descending Albuquerque Center
Fri 11:03:32 AM 31.4803 -104.7250 277° West 396 456 25,600 -629 Descending Albuquerque Center
Fri 11:04:34 AM 31.4911 -104.8506 276° West 391 450 24,600 -1,016 Descending Albuquerque Center
Fri 11:05:36 AM 31.5050 -104.9739 278° West 386 444 23,500 -1,065 Descending Albuquerque Center
Fri 11:06:38 AM 31.5239 -105.0953 280° West 381 438 22,400 -1,065 Descending Albuquerque Center
Fri 11:07:40 AM 31.5361 -105.2200 277° West 383 441 21,300 -1,113 Descending Albuquerque Center
Fri 11:08:42 AM 31.5469 -105.3647 275° West 383 441 20,100 -1,210 Descending Albuquerque Center
Fri 11:09:44 AM 31.5564 -105.4878 275° West 378 435 18,800 -1,647 Descending Albuquerque Center
Fri 11:10:24 AM 31.5647 -105.5686 277° West 364 419 17,300 -2,262 Descending Albuquerque Center
Fri 11:10:45 AM 31.5672 -105.6053 275° West 363 418 16,500 -2,651 Descending Albuquerque Center
Fri 11:11:07 AM 31.5750 -105.6458 283° West 338 389 15,400 -2,710 Descending Albuquerque Center
Fri 11:11:47 AM 31.5806 -105.7219 275° West 337 388 13,700 -2,300 Descending Albuquerque Center
Fri 11:12:07 AM 31.5828 -105.7561 274° West 332 382 13,100 -1,258 Descending Albuquerque Center
Fri 11:12:49 AM 31.6008 -105.8283 286° West 335 386 12,400 -984 Descending Albuquerque Center
Fri 11:13:08 AM 31.6147 -105.8581 299° West 339 390 12,100 -1,143 Descending Albuquerque Center
Fri 11:13:52 AM 31.6519 -105.9186 306° West 328 377 11,200 -1,180 Descending Albuquerque Center
Fri 11:14:09 AM 31.6683 -105.9392 313° West 306 352 10,900 -1,258 Descending Albuquerque Center
Fri 11:14:54 AM 31.7050 -105.9928 309° West 276 318 9,900 -1,300 Descending Albuquerque Center
Fri 11:15:09 AM 31.7150 -106.0075 309° West 260 299 9,600 -1,355 Descending Albuquerque Center
Fri 11:15:56 AM 31.7517 -106.0592 310° West 263 303 8,500 -1,475 Descending Albuquerque Center
Fri 11:16:10 AM 31.7617 -106.0756 306° West 259 298 8,100 -1,258 Descending Albuquerque Center
Fri 11:16:58 AM 31.7972 -106.1256 310° West 261 300 7,200 -1,082 Descending Albuquerque Center
Fri 11:17:11 AM 31.8081 -106.1414 309° West 260 299 7,000 -871 Descending Albuquerque Center
Fri 11:18:00 AM 31.8439 -106.1928 309° West 245 282 6,300 -800 Descending Albuquerque Center
Fri 11:18:11 AM 31.8508 -106.2006 316° Northwest 227 261 6,200 -387 Descending Albuquerque Center
Fri 11:19:02 AM 31.8622 -106.2531 284° West 201 231 5,900 -295 Descending Albuquerque Center
Fri 11:19:12 AM 31.8642 -106.2622 284° West 189 217 5,900 -387 Level Albuquerque Center
Fri 11:20:04 AM 31.8650 -106.3042 271° West 147 169 5,500 -492 Descending Albuquerque Center
Fri 11:20:13 AM 31.8622 -106.3103 242° Southwest 124 143 5,400 -774 Descending Albuquerque Center
Fri 11:21:06 AM 31.8447 -106.3392 235° Southwest 122 140 4,700 -800 Descending Albuquerque Center
Fri 11:21:13 AM 31.8425 -106.3428 234° Southwest 112 129 4,600 -581 Descending Albuquerque Center
Fri 11:22:08 AM 31.8225 -106.3689 228° Southwest 121 139 4,100 -545 Descending Albuquerque Center

Login

Don't have an account? Register now (free) for customized features, flight alerts, and more!